Terminal Aerodrome Forecast
Issued by NWS Omaha/Valley, NE

Home | Current Version | Previous Version | Text Only | Print | Product List | Glossary Off
Versions: 1 2 3 4 5 6 7 8 9 10 11 12 13 14 15 16 17 18 19 20 21 22 23 24 25 26 27 28 29 30 31 32 33 34 35 36

000
FTUS43 KOAX 261609 AAB
TAFOFK
TAF AMD
KOFK 261609Z 2616/2712 32011KT P6SM BKN007 OVC015
      TEMPO 2616/2618 -RA
     FM261800 35010KT P6SM BKN015 OVC040
     FM262000 34013KT P6SM BKN040
     FM270100 33005KT P6SM SCT090=

USA.gov is the U.S. government's official web portal to all federal, state and local government web resources and services.